createdAt,value
2023-05-27T00:09:43.591Z,8.9
2023-05-27T00:19:43.920Z,8.8
2023-05-27T00:29:44.766Z,8.6
2023-05-27T00:39:45.056Z,8.5
2023-05-27T00:49:46.131Z,8.5
2023-05-27T00:59:46.970Z,8.4
2023-05-27T01:09:47.158Z,8.2
2023-05-27T01:19:48.094Z,8.1
2023-05-27T01:39:49.315Z,7.8
2023-05-27T01:59:51.168Z,7.5
2023-05-27T02:09:52.003Z,7.4
2023-05-27T02:29:53.220Z,7.2
2023-05-27T02:39:54.159Z,7.1
2023-05-27T02:49:54.935Z,7
2023-05-27T02:59:55.735Z,6.8
2023-05-27T03:19:57.496Z,6.6
2023-05-27T03:29:58.446Z,6.3
2023-05-27T03:50:00.615Z,6.3
2023-05-27T04:10:01.362Z,6.3
2023-05-27T04:30:02.132Z,6.8
2023-05-27T04:40:02.237Z,7.2
2023-05-27T04:50:02.710Z,7.5
2023-05-27T05:00:03.432Z,7.8
2023-05-27T05:10:04.282Z,8.3
2023-05-27T05:20:04.985Z,8.7
2023-05-27T05:40:06.721Z,9.6
2023-05-27T05:50:07.179Z,10.1
2023-05-27T06:00:07.286Z,10.4
2023-05-27T06:10:08.291Z,11
2023-05-27T06:20:08.829Z,11.3
2023-05-27T06:30:09.446Z,11.9
2023-05-27T06:40:10.443Z,12.4
2023-05-27T06:50:10.999Z,12.7
2023-05-27T07:00:11.174Z,13
2023-05-27T07:10:12.201Z,13.4
2023-05-27T07:20:12.904Z,13.5
2023-05-27T07:30:13.246Z,13.6
2023-05-27T07:40:13.937Z,14.5
2023-05-27T07:50:14.309Z,15.4
2023-05-27T08:00:14.698Z,15.9
2023-05-27T08:10:14.861Z,15.8
2023-05-27T08:20:15.149Z,16
2023-05-27T08:30:15.980Z,16.4
2023-05-27T08:40:16.216Z,16.5
2023-05-27T08:50:17.338Z,17.2
2023-05-27T09:00:19.503Z,17.3
2023-05-27T09:10:18.026Z,17.5
2023-05-27T09:20:18.249Z,18
2023-05-27T09:30:19.009Z,18.6
2023-05-27T09:40:19.184Z,18.5
2023-05-27T09:50:19.441Z,19.1
2023-05-27T10:00:19.764Z,19.4
2023-05-27T10:10:20.152Z,19
2023-05-27T10:20:20.712Z,19.3
2023-05-27T10:30:21.751Z,19.3
2023-05-27T10:40:22.800Z,19.4
2023-05-27T11:10:24.205Z,20.9
2023-05-27T11:20:24.864Z,21.4
2023-05-27T11:30:25.681Z,20.9
2023-05-27T11:40:26.286Z,21.1
2023-05-27T11:50:26.691Z,21.2
2023-05-27T12:00:27.388Z,21.6
2023-05-27T13:40:32.080Z,22.4
2023-05-27T17:10:44.901Z,23
2023-05-27T18:20:50.224Z,21.4
2023-05-27T18:40:53.276Z,20.7
2023-05-27T18:50:52.316Z,20
2023-05-27T19:20:53.079Z,18.6
2023-05-27T19:40:53.940Z,17.9
2023-05-27T19:50:54.429Z,17.5
2023-05-27T20:00:55.265Z,17.1
2023-05-27T20:50:58.065Z,15.6
2023-05-27T21:00:58.771Z,15
2023-05-27T21:10:59.196Z,14.6
2023-05-27T21:20:59.995Z,14.1
